createdAt,value
2019-05-18T00:00:56.494Z,9.50
2019-05-18T00:03:31.273Z,9.78
2019-05-18T00:06:05.648Z,9.70
2019-05-18T00:08:40.162Z,9.50
2019-05-18T00:11:14.516Z,9.83
2019-05-18T00:13:48.918Z,10.13
2019-05-18T00:16:23.312Z,9.48
2019-05-18T00:18:57.724Z,10.10
2019-05-18T00:21:31.790Z,10.20
2019-05-18T00:24:06.165Z,9.65
2019-05-18T00:26:40.603Z,9.55
2019-05-18T00:29:15.043Z,10.00
2019-05-18T00:31:49.288Z,10.28
2019-05-18T00:34:23.813Z,10.13
2019-05-18T00:36:57.941Z,10.85
2019-05-18T00:39:32.444Z,10.53
2019-05-18T00:42:06.670Z,11.05
2019-05-18T00:44:40.944Z,10.93
2019-05-18T00:47:15.370Z,11.38
2019-05-18T00:49:49.442Z,10.80
2019-05-18T00:52:23.707Z,11.95
2019-05-18T00:54:57.797Z,12.70
2019-05-18T00:57:32.057Z,12.93
2019-05-18T01:00:08.134Z,13.13
2019-05-18T01:02:42.550Z,12.82
2019-05-18T01:05:16.462Z,12.50
2019-05-18T01:07:50.529Z,11.95
2019-05-18T01:10:24.778Z,12.25
2019-05-18T01:12:59.225Z,11.65
2019-05-18T01:15:33.514Z,13.40
2019-05-18T01:18:07.746Z,12.68
2019-05-18T01:20:41.804Z,13.38
2019-05-18T01:23:16.150Z,12.58
2019-05-18T01:25:50.161Z,11.95
2019-05-18T01:28:24.271Z,12.37
2019-05-18T01:30:57.983Z,11.78
2019-05-18T01:33:31.789Z,11.57
2019-05-18T01:36:06.674Z,11.00
2019-05-18T01:38:40.461Z,11.20
2019-05-18T01:41:14.458Z,11.38
2019-05-18T01:43:48.963Z,11.48
2019-05-18T01:46:23.030Z,10.40
2019-05-18T01:48:57.156Z,11.30
2019-05-18T01:51:31.252Z,11.12
2019-05-18T01:54:05.409Z,10.58
2019-05-18T01:56:39.458Z,10.85
2019-05-18T01:59:13.557Z,9.70
2019-05-18T02:01:47.891Z,10.00
2019-05-18T02:04:22.105Z,9.60
2019-05-18T02:06:56.276Z,10.20
2019-05-18T02:09:30.541Z,9.60
2019-05-18T02:12:04.707Z,9.35
2019-05-18T02:14:38.952Z,9.70
2019-05-18T02:17:12.845Z,8.78
2019-05-18T02:19:46.773Z,9.08
2019-05-18T02:22:20.705Z,9.35
2019-05-18T02:24:54.908Z,8.98
2019-05-18T02:27:29.016Z,8.90
2019-05-18T02:30:02.961Z,9.03
2019-05-18T02:32:37.738Z,9.13
2019-05-18T02:35:11.839Z,8.95
2019-05-18T02:37:46.009Z,8.10
2019-05-18T02:40:20.370Z,8.53
2019-05-18T02:42:54.981Z,8.33
2019-05-18T02:45:29.373Z,8.10
2019-05-18T02:48:03.454Z,7.80
2019-05-18T02:50:37.795Z,7.95
2019-05-18T02:53:12.174Z,7.65
2019-05-18T02:55:46.158Z,8.13
2019-05-18T02:58:20.506Z,8.25
2019-05-18T03:00:54.684Z,9.05
2019-05-18T03:03:29.174Z,8.48
2019-05-18T03:06:03.396Z,8.00
2019-05-18T03:08:37.546Z,7.95
2019-05-18T03:11:12.267Z,8.08
2019-05-18T03:13:46.638Z,8.45
2019-05-18T03:16:21.101Z,7.78
2019-05-18T03:19:07.368Z,8.85
2019-05-18T03:21:32.193Z,9.25
2019-05-18T03:24:06.731Z,8.58
2019-05-18T03:26:40.897Z,8.03
2019-05-18T03:29:15.844Z,8.35
2019-05-18T03:31:49.967Z,7.78
2019-05-18T03:34:24.164Z,8.25
2019-05-18T03:36:58.391Z,7.80
2019-05-18T03:39:32.600Z,8.88
2019-05-18T03:42:06.985Z,7.90
2019-05-18T03:44:41.143Z,8.10
2019-05-18T03:47:15.229Z,7.75
2019-05-18T03:49:50.473Z,7.67
2019-05-18T03:52:24.595Z,7.75
2019-05-18T03:54:58.706Z,7.47
2019-05-18T03:57:33.003Z,8.13
2019-05-18T04:00:07.816Z,8.25
2019-05-18T04:02:41.839Z,8.90
2019-05-18T04:05:16.191Z,8.30
2019-05-18T04:07:50.404Z,8.93
2019-05-18T04:10:30.533Z,9.35
2019-05-18T04:13:04.665Z,9.05
2019-05-18T04:15:38.873Z,8.08
2019-05-18T04:18:13.104Z,9.63
2019-05-18T04:20:47.032Z,8.85
2019-05-18T04:23:21.098Z,9.90
2019-05-18T04:25:56.073Z,9.50
2019-05-18T04:28:30.176Z,9.03
2019-05-18T04:31:04.518Z,10.43
2019-05-18T04:33:38.629Z,10.28
2019-05-18T04:36:12.951Z,10.80
2019-05-18T04:38:46.973Z,11.12
2019-05-18T04:41:21.413Z,10.35
2019-05-18T04:43:55.733Z,9.85
2019-05-18T04:46:29.630Z,10.00
2019-05-18T04:49:03.911Z,9.60
2019-05-18T04:51:38.255Z,9.25
2019-05-18T04:54:12.550Z,9.33
2019-05-18T04:56:47.491Z,9.48
2019-05-18T04:59:21.321Z,8.88
2019-05-18T05:01:55.647Z,9.15
2019-05-18T05:04:29.779Z,8.98
2019-05-18T05:07:04.024Z,8.95
2019-05-18T05:09:38.392Z,8.53
2019-05-18T05:12:13.233Z,9.03
2019-05-18T05:14:59.544Z,8.55
2019-05-18T05:17:33.791Z,9.10
2019-05-18T05:20:19.440Z,9.10
2019-05-18T05:22:44.223Z,9.68
2019-05-18T05:25:18.575Z,9.85
2019-05-18T05:27:52.549Z,9.90
2019-05-18T05:30:26.532Z,9.75
2019-05-18T05:33:00.465Z,10.63
2019-05-18T05:35:37.611Z,10.40
2019-05-18T05:38:11.159Z,9.95
2019-05-18T05:40:45.384Z,10.53
2019-05-18T05:43:19.423Z,10.10
2019-05-18T05:45:53.650Z,9.90
2019-05-18T05:48:27.694Z,10.45
2019-05-18T05:51:02.271Z,11.18
2019-05-18T05:53:36.405Z,10.10
2019-05-18T05:56:10.304Z,10.58
2019-05-18T05:58:44.646Z,10.55
2019-05-18T06:01:18.939Z,10.18
2019-05-18T06:03:52.896Z,10.53
2019-05-18T06:06:26.749Z,10.53
2019-05-18T06:09:00.801Z,10.30
2019-05-18T06:11:35.184Z,10.40
2019-05-18T06:14:09.379Z,10.13
2019-05-18T06:16:43.395Z,10.38
2019-05-18T06:19:17.267Z,10.65
2019-05-18T06:21:51.388Z,10.72
2019-05-18T06:24:25.518Z,11.40
2019-05-18T06:26:59.520Z,10.68
2019-05-18T06:29:33.513Z,9.98
2019-05-18T06:32:07.635Z,10.32
2019-05-18T06:34:41.663Z,9.53
2019-05-18T06:37:15.757Z,10.10
2019-05-18T06:39:50.285Z,9.83
2019-05-18T06:42:24.598Z,9.98
2019-05-18T06:44:58.743Z,10.38
2019-05-18T06:47:33.908Z,10.48
2019-05-18T06:50:11.359Z,10.93
2019-05-18T06:52:43.865Z,20.88
2019-05-18T06:55:18.066Z,13.30
2019-05-18T06:57:52.542Z,12.13
2019-05-18T07:00:26.794Z,13.22
2019-05-18T07:03:02.697Z,13.58
2019-05-18T07:05:36.511Z,12.90
2019-05-18T07:08:13.226Z,12.23
2019-05-18T07:10:47.475Z,12.45
2019-05-18T07:13:21.478Z,11.68
2019-05-18T07:15:55.665Z,11.93
2019-05-18T07:18:29.436Z,11.97
2019-05-18T07:21:03.454Z,12.75
2019-05-18T07:23:37.256Z,11.90
2019-05-18T07:26:11.297Z,12.07
2019-05-18T07:28:45.312Z,11.38
2019-05-18T07:31:19.401Z,11.43
2019-05-18T07:33:53.262Z,11.20
2019-05-18T07:36:27.150Z,11.38
2019-05-18T07:39:01.213Z,11.63
2019-05-18T07:41:46.151Z,12.28
2019-05-18T07:44:20.496Z,11.60
2019-05-18T07:46:54.769Z,10.88
2019-05-18T07:49:28.882Z,10.45
2019-05-18T07:52:02.902Z,11.08
2019-05-18T07:54:36.798Z,10.95
2019-05-18T07:57:13.970Z,10.95
2019-05-18T07:59:47.903Z,10.35
2019-05-18T08:02:22.112Z,10.88
2019-05-18T08:04:56.264Z,10.53
2019-05-18T08:07:30.272Z,10.35
2019-05-18T08:10:04.432Z,10.70
2019-05-18T08:12:38.225Z,10.80
2019-05-18T08:15:13.885Z,10.88
2019-05-18T08:17:47.663Z,10.10
2019-05-18T08:20:21.569Z,10.58
2019-05-18T08:22:55.896Z,10.88
2019-05-18T08:25:30.260Z,10.63
2019-05-18T08:28:08.149Z,10.08
2019-05-18T08:30:42.021Z,10.85
2019-05-18T08:33:16.065Z,10.72
2019-05-18T08:35:50.237Z,10.50
2019-05-18T08:38:24.188Z,10.08
2019-05-18T08:40:58.288Z,10.30
2019-05-18T08:43:32.332Z,10.15
2019-05-18T08:46:06.340Z,11.33
2019-05-18T08:48:40.447Z,10.25
2019-05-18T08:51:14.369Z,10.45
2019-05-18T08:53:48.916Z,10.98
2019-05-18T08:56:23.923Z,10.75
2019-05-18T08:58:57.969Z,11.55
2019-05-18T09:01:31.744Z,10.13
2019-05-18T09:04:05.807Z,11.25
2019-05-18T09:06:39.793Z,11.78
2019-05-18T09:09:13.830Z,11.35
2019-05-18T09:11:47.793Z,11.35
2019-05-18T09:14:21.605Z,11.28
2019-05-18T09:16:55.628Z,11.65
2019-05-18T09:19:29.621Z,11.75
2019-05-18T09:22:03.434Z,10.75
2019-05-18T09:24:37.253Z,11.73
2019-05-18T09:27:13.734Z,11.20
2019-05-18T09:29:47.990Z,10.80
2019-05-18T09:32:22.148Z,11.20
2019-05-18T09:34:57.325Z,11.15
2019-05-18T09:37:31.427Z,11.70
2019-05-18T09:40:05.770Z,11.22
2019-05-18T09:42:39.808Z,11.65
2019-05-18T09:45:15.614Z,11.40
2019-05-18T09:47:49.445Z,10.98
2019-05-18T09:50:23.553Z,11.50
2019-05-18T09:52:57.880Z,12.03
2019-05-18T09:55:31.675Z,11.78
2019-05-18T09:58:06.019Z,11.10
2019-05-18T10:00:40.592Z,11.35
2019-05-18T10:03:15.391Z,11.70
2019-05-18T10:05:49.455Z,10.98
2019-05-18T10:08:23.560Z,11.53
2019-05-18T10:10:57.776Z,11.57
2019-05-18T10:13:33.631Z,10.95
2019-05-18T10:16:07.665Z,11.33
2019-05-18T10:18:42.033Z,11.28
2019-05-18T10:21:16.111Z,10.63
2019-05-18T10:23:50.239Z,11.45
2019-05-18T10:26:24.331Z,11.25
2019-05-18T10:28:58.340Z,11.83
2019-05-18T10:31:32.642Z,10.70
2019-05-18T10:34:06.955Z,10.95
2019-05-18T10:36:40.851Z,11.57
2019-05-18T10:39:15.447Z,11.22
2019-05-18T10:41:49.301Z,11.20
2019-05-18T10:44:23.422Z,10.82
2019-05-18T10:46:57.475Z,11.00
2019-05-18T10:49:31.384Z,10.80
2019-05-18T10:52:05.553Z,9.75
2019-05-18T10:54:39.880Z,10.43
2019-05-18T10:57:14.185Z,10.55
2019-05-18T10:59:48.940Z,10.80
2019-05-18T11:02:22.986Z,10.78
2019-05-18T11:04:57.204Z,10.58
2019-05-18T11:07:31.388Z,11.25
2019-05-18T11:10:05.732Z,10.88
2019-05-18T11:12:40.083Z,10.55
2019-05-18T11:15:15.880Z,11.03
2019-05-18T11:17:50.297Z,10.40
2019-05-18T11:20:24.895Z,10.70
2019-05-18T11:22:58.857Z,10.40
2019-05-18T11:25:33.333Z,10.63
2019-05-18T11:28:07.347Z,10.43
2019-05-18T11:30:41.403Z,11.43
2019-05-18T11:33:15.368Z,12.93
2019-05-18T11:35:49.525Z,12.58
2019-05-18T11:38:23.688Z,12.23
2019-05-18T11:40:57.950Z,11.63
2019-05-18T11:43:32.340Z,11.57
2019-05-18T11:46:06.607Z,11.12
2019-05-18T11:48:40.588Z,11.08
2019-05-18T11:51:14.651Z,11.90
2019-05-18T11:53:57.969Z,11.30
2019-05-18T11:56:24.310Z,11.28
2019-05-18T11:58:58.153Z,11.38
2019-05-18T12:01:32.379Z,11.10
2019-05-18T12:04:06.531Z,10.90
2019-05-18T12:06:40.645Z,10.88
2019-05-18T12:09:14.811Z,11.18
2019-05-18T12:11:48.696Z,10.85
2019-05-18T12:14:22.813Z,10.78
2019-05-18T12:16:57.073Z,10.90
2019-05-18T12:19:30.999Z,9.75
2019-05-18T12:22:04.902Z,9.70
2019-05-18T12:24:38.881Z,10.03
2019-05-18T12:27:13.010Z,9.90
2019-05-18T12:29:46.919Z,9.90
2019-05-18T12:32:20.825Z,9.58
2019-05-18T12:34:55.065Z,9.88
2019-05-18T12:37:28.959Z,10.05
2019-05-18T12:40:03.143Z,10.13
2019-05-18T12:42:37.338Z,9.75
2019-05-18T12:45:13.046Z,9.50
2019-05-18T12:47:48.126Z,9.88
2019-05-18T12:50:22.894Z,9.95
2019-05-18T12:52:56.895Z,10.48
2019-05-18T12:55:31.410Z,10.43
2019-05-18T12:58:05.674Z,11.12
2019-05-18T13:00:40.035Z,10.75
2019-05-18T13:03:14.046Z,12.10
2019-05-18T13:05:48.354Z,11.40
2019-05-18T13:08:23.207Z,10.43
2019-05-18T13:10:57.572Z,10.85
2019-05-18T13:13:31.635Z,10.95
2019-05-18T13:16:05.815Z,11.25
2019-05-18T13:18:39.868Z,10.78
2019-05-18T13:21:14.234Z,10.95
2019-05-18T13:23:48.072Z,11.45
2019-05-18T13:26:22.300Z,10.88
2019-05-18T13:28:56.316Z,11.33
2019-05-18T13:31:30.224Z,11.05
2019-05-18T13:34:04.385Z,11.10
2019-05-18T13:36:38.353Z,10.85
2019-05-18T13:39:12.710Z,10.82
2019-05-18T13:41:46.747Z,11.38
2019-05-18T13:44:21.034Z,11.38
2019-05-18T13:46:54.935Z,11.43
2019-05-18T13:49:29.294Z,11.53
2019-05-18T13:52:03.387Z,10.93
2019-05-18T13:54:37.681Z,11.35
2019-05-18T13:57:11.738Z,11.50
2019-05-18T13:59:45.761Z,11.28
2019-05-18T14:02:20.324Z,11.63
2019-05-18T14:04:54.368Z,11.22
2019-05-18T14:07:28.951Z,11.03
2019-05-18T14:10:03.121Z,11.53
2019-05-18T14:12:37.829Z,11.12
2019-05-18T14:15:13.490Z,11.45
2019-05-18T14:17:47.866Z,11.75
2019-05-18T14:20:22.563Z,11.18
2019-05-18T14:22:56.597Z,11.22
2019-05-18T14:25:31.665Z,11.28
2019-05-18T14:28:06.441Z,11.53
2019-05-18T14:30:40.578Z,11.75
2019-05-18T14:33:14.835Z,12.00
2019-05-18T14:35:48.949Z,12.03
2019-05-18T14:38:23.114Z,12.63
2019-05-18T14:40:56.961Z,11.40
2019-05-18T14:43:32.165Z,12.00
2019-05-18T14:46:06.447Z,12.13
2019-05-18T14:48:40.764Z,11.43
2019-05-18T14:51:14.873Z,11.90
2019-05-18T14:53:48.640Z,11.60
2019-05-18T14:56:22.824Z,11.25
2019-05-18T14:58:57.126Z,10.43
2019-05-18T15:01:31.072Z,11.15
2019-05-18T15:04:04.877Z,11.05
2019-05-18T15:06:39.419Z,11.08
2019-05-18T15:09:13.619Z,10.80
2019-05-18T15:11:47.958Z,10.50
2019-05-18T15:14:22.016Z,10.70
2019-05-18T15:16:56.245Z,11.00
2019-05-18T15:19:30.426Z,11.48
2019-05-18T15:22:04.669Z,10.53
2019-05-18T15:24:38.804Z,11.55
2019-05-18T15:27:12.700Z,11.65
2019-05-18T15:29:47.868Z,11.70
2019-05-18T15:32:21.919Z,11.63
2019-05-18T15:34:56.004Z,12.58
2019-05-18T15:37:30.132Z,13.15
2019-05-18T15:40:04.270Z,13.18
2019-05-18T15:42:38.348Z,13.95
2019-05-18T15:45:12.697Z,14.15
2019-05-18T15:47:46.934Z,14.25
2019-05-18T15:50:21.672Z,14.90
2019-05-18T15:52:55.526Z,14.60
2019-05-18T15:55:29.588Z,15.72
2019-05-18T15:58:03.546Z,15.63
2019-05-18T16:00:37.791Z,15.15
2019-05-18T16:03:14.838Z,15.32
2019-05-18T16:05:48.974Z,15.58
2019-05-18T16:08:23.267Z,15.18
2019-05-18T16:10:57.332Z,15.50
2019-05-18T16:13:31.398Z,15.40
2019-05-18T16:16:05.635Z,15.40
2019-05-18T16:18:39.676Z,15.23
2019-05-18T16:21:13.861Z,15.25
2019-05-18T16:23:48.034Z,14.78
2019-05-18T16:26:22.185Z,14.68
2019-05-18T16:28:56.273Z,15.88
2019-05-18T16:31:30.418Z,15.05
2019-05-18T16:34:04.833Z,15.15
2019-05-18T16:36:39.179Z,15.70
2019-05-18T16:39:13.133Z,15.60
2019-05-18T16:41:47.417Z,14.98
2019-05-18T16:44:21.578Z,15.65
2019-05-18T16:46:55.608Z,15.80
2019-05-18T16:49:29.948Z,15.93
2019-05-18T16:52:04.288Z,15.25
2019-05-18T16:54:38.404Z,15.03
2019-05-18T16:57:12.452Z,15.13
2019-05-18T16:59:46.416Z,15.70
2019-05-18T17:02:31.299Z,15.03
2019-05-18T17:04:57.485Z,14.75
2019-05-18T17:07:31.762Z,16.27
2019-05-18T17:10:06.969Z,16.85
2019-05-18T17:12:41.199Z,17.15
2019-05-18T17:15:16.456Z,17.82
2019-05-18T17:17:50.405Z,18.67
2019-05-18T17:20:24.798Z,18.87
2019-05-18T17:22:59.561Z,18.92
2019-05-18T17:25:33.574Z,19.82
2019-05-18T17:28:07.898Z,18.32
2019-05-18T17:30:42.918Z,17.82
2019-05-18T17:33:17.482Z,17.75
2019-05-18T17:35:59.924Z,18.02
2019-05-18T17:38:27.853Z,16.70
2019-05-18T17:41:01.831Z,16.35
2019-05-18T17:43:35.994Z,16.40
2019-05-18T17:46:09.894Z,15.93
2019-05-18T17:48:44.189Z,15.83
2019-05-18T17:51:18.438Z,15.03
2019-05-18T17:53:53.105Z,14.78
2019-05-18T17:56:27.170Z,14.47
2019-05-18T17:59:01.166Z,14.47
2019-05-18T18:01:35.228Z,14.15
2019-05-18T18:04:09.204Z,13.58
2019-05-18T18:06:43.190Z,13.15
2019-05-18T18:09:17.013Z,14.13
2019-05-18T18:11:50.997Z,13.60
2019-05-18T18:14:24.978Z,13.35
2019-05-18T18:16:59.025Z,12.90
2019-05-18T18:19:33.115Z,13.15
2019-05-18T18:22:07.394Z,12.50
2019-05-18T18:24:41.606Z,11.83
2019-05-18T18:27:24.556Z,12.05
2019-05-18T18:29:49.821Z,12.53
2019-05-18T18:32:23.696Z,12.03
2019-05-18T18:34:57.765Z,11.22
2019-05-18T18:37:31.932Z,12.03
2019-05-18T18:40:06.262Z,11.85
2019-05-18T18:42:40.363Z,11.63
2019-05-18T18:45:15.793Z,11.55
2019-05-18T18:47:49.632Z,10.60
2019-05-18T18:50:23.743Z,12.30
2019-05-18T18:52:57.975Z,10.63
2019-05-18T18:55:32.424Z,11.30
2019-05-18T18:58:06.649Z,10.75
2019-05-18T19:00:40.825Z,10.53
2019-05-18T19:03:15.260Z,11.10
2019-05-18T19:05:49.324Z,10.20
2019-05-18T19:08:23.455Z,10.40
2019-05-18T19:10:57.463Z,10.25
2019-05-18T19:13:31.799Z,10.18
2019-05-18T19:16:05.765Z,10.70
2019-05-18T19:18:39.905Z,10.23
2019-05-18T19:21:13.984Z,10.75
2019-05-18T19:23:48.051Z,10.55
2019-05-18T19:26:22.199Z,10.72
2019-05-18T19:28:56.343Z,10.58
2019-05-18T19:31:30.403Z,10.53
2019-05-18T19:34:04.843Z,10.18
2019-05-18T19:36:38.812Z,10.32
2019-05-18T19:39:13.131Z,10.10
2019-05-18T19:41:47.227Z,10.48
2019-05-18T19:44:23.923Z,9.93
2019-05-18T19:46:57.069Z,11.25
2019-05-18T19:49:31.264Z,10.20
2019-05-18T19:52:05.055Z,10.15
2019-05-18T19:54:39.102Z,10.72
2019-05-18T19:57:13.998Z,9.98
2019-05-18T19:59:48.187Z,10.20
2019-05-18T20:02:22.861Z,10.18
2019-05-18T20:05:07.140Z,9.95
2019-05-18T20:07:33.049Z,11.33
2019-05-18T20:10:07.700Z,10.55
2019-05-18T20:12:42.238Z,10.68
2019-05-18T20:15:16.577Z,10.10
2019-05-18T20:17:50.750Z,10.40
2019-05-18T20:20:24.893Z,10.72
2019-05-18T20:22:58.971Z,10.98
2019-05-18T20:25:32.939Z,10.98
2019-05-18T20:28:06.978Z,10.43
2019-05-18T20:30:41.016Z,10.82
2019-05-18T20:33:15.023Z,10.32
2019-05-18T20:35:49.350Z,10.50
2019-05-18T20:38:23.418Z,11.00
2019-05-18T20:41:57.236Z,11.30
2019-05-18T20:44:31.179Z,11.12
2019-05-18T20:47:05.228Z,11.00
2019-05-18T20:49:39.317Z,12.10
2019-05-18T20:52:13.489Z,13.48
2019-05-18T20:54:47.458Z,12.58
2019-05-18T20:57:21.490Z,13.08
2019-05-18T20:59:55.683Z,12.15
2019-05-18T21:02:29.623Z,12.03
2019-05-18T21:05:03.757Z,12.30
2019-05-18T21:07:37.971Z,12.05
2019-05-18T21:10:12.405Z,11.90
2019-05-18T21:12:46.716Z,12.37
2019-05-18T21:15:21.216Z,11.68
2019-05-18T21:17:55.510Z,12.28
2019-05-18T21:20:29.700Z,12.98
2019-05-18T21:23:04.098Z,12.65
2019-05-18T21:25:38.355Z,12.33
2019-05-18T21:28:12.423Z,12.78
2019-05-18T21:30:47.736Z,12.58
2019-05-18T21:33:21.716Z,12.43
2019-05-18T21:35:55.591Z,12.33
2019-05-18T21:38:29.948Z,12.50
2019-05-18T21:41:03.795Z,13.05
2019-05-18T21:43:38.897Z,12.70
2019-05-18T21:46:13.073Z,12.23
2019-05-18T21:48:47.392Z,12.07
2019-05-18T21:51:21.544Z,11.75
2019-05-18T21:53:55.596Z,12.28
2019-05-18T21:56:29.659Z,11.80
2019-05-18T21:59:11.664Z,12.35
2019-05-18T22:01:39.455Z,11.50
2019-05-18T22:04:13.876Z,12.28
2019-05-18T22:06:47.964Z,12.50
2019-05-18T22:09:22.049Z,12.23
2019-05-18T22:11:56.199Z,12.45
2019-05-18T22:14:30.271Z,12.40
2019-05-18T22:17:04.467Z,12.13
2019-05-18T22:19:38.453Z,12.23
2019-05-18T22:22:12.624Z,12.65
2019-05-18T22:24:46.677Z,12.60
2019-05-18T22:27:20.661Z,12.50
2019-05-18T22:29:54.476Z,12.82
2019-05-18T22:32:28.652Z,13.05
2019-05-18T22:35:02.524Z,12.95
2019-05-18T22:37:36.661Z,12.33
2019-05-18T22:40:10.824Z,13.40
2019-05-18T22:42:44.752Z,13.30
2019-05-18T22:45:18.907Z,12.80
2019-05-18T22:47:53.008Z,13.30
2019-05-18T22:50:27.551Z,13.38
2019-05-18T22:53:01.672Z,12.78
2019-05-18T22:55:35.709Z,13.60
2019-05-18T22:58:09.889Z,13.58
2019-05-18T23:00:43.852Z,13.43
2019-05-18T23:03:17.899Z,13.83
2019-05-18T23:05:52.166Z,13.30
2019-05-18T23:08:26.269Z,13.45
2019-05-18T23:11:00.080Z,13.75
2019-05-18T23:13:34.343Z,13.35
2019-05-18T23:16:08.307Z,13.32
2019-05-18T23:18:55.931Z,13.90
2019-05-18T23:21:18.417Z,13.58
2019-05-18T23:23:52.658Z,13.70
2019-05-18T23:26:26.900Z,14.15
2019-05-18T23:29:01.025Z,12.73
2019-05-18T23:31:35.269Z,13.40
2019-05-18T23:34:09.531Z,14.05
2019-05-18T23:36:43.804Z,13.83
2019-05-18T23:39:18.077Z,13.50
2019-05-18T23:41:51.886Z,13.93
2019-05-18T23:44:26.566Z,14.28
2019-05-18T23:47:00.800Z,13.75
2019-05-18T23:49:35.009Z,14.25
2019-05-18T23:52:09.144Z,13.70
2019-05-18T23:54:43.441Z,13.48
2019-05-18T23:57:17.408Z,14.40
2019-05-18T23:59:51.492Z,13.98
